Time;durP1;ratioP1;P1;durP2;ratioP2;P2;SDS_P1;SDS_P2;PMS_P1;PMS_P2;Temp;Humidity;BMP_temperature;BMP_pressure;BME280_temperature;BME280_humidity;BME280_pressure;Samples;Min_cycle;Max_cycle;Signal;HPM_P1;HPM_P2
2023/01/10 00:00:26;;;;;;;1.45;0.80;;;;;;;3.47;100.00;96941.53;5049324;28;20045;-66
2023/01/10 00:02:52;;;;;;;1.50;0.75;;;;;;;3.45;100.00;96957.81;5050704;28;20045;-62
2023/01/10 00:05:19;;;;;;;2.63;0.85;;;;;;;3.46;100.00;96967.47;5048485;28;20045;-65
2023/01/10 00:07:45;;;;;;;2.42;1.10;;;;;;;3.40;100.00;96971.00;5047304;28;20066;-65
2023/01/10 00:10:13;;;;;;;1.90;1.10;;;;;;;3.30;100.00;96971.47;5047601;28;20084;-65
2023/01/10 00:15:24;;;;;;;2.20;1.10;;;;;;;3.29;100.00;96972.53;5045900;28;20410;-64
2023/01/10 00:17:51;;;;;;;2.22;0.98;;;;;;;3.28;100.00;96976.22;5048674;28;20080;-65
2023/01/10 00:20:17;;;;;;;2.42;1.15;;;;;;;3.24;100.00;96981.19;5047034;28;20075;-66
2023/01/10 00:22:44;;;;;;;2.50;1.15;;;;;;;3.32;100.00;96990.00;5045390;28;20048;-63
2023/01/10 00:25:11;;;;;;;2.72;1.35;;;;;;;3.23;100.00;96992.94;5047603;28;20053;-63
2023/01/10 00:27:38;;;;;;;3.25;1.30;;;;;;;3.28;100.00;96991.47;5048955;28;20110;-66
2023/01/10 00:30:12;;;;;;;3.38;1.25;;;;;;;3.20;100.00;96993.34;5046381;28;20044;-66
2023/01/10 00:32:43;;;;;;;2.65;1.33;;;;;;;3.20;100.00;96996.03;5046623;28;20059;-66
2023/01/10 00:35:11;;;;;;;5.28;1.60;;;;;;;3.23;100.00;97003.63;5047526;28;20051;-65
2023/01/10 00:37:38;;;;;;;2.90;1.50;;;;;;;3.23;100.00;97005.47;5047531;28;20037;-64
2023/01/10 00:40:10;;;;;;;2.30;1.13;;;;;;;3.28;100.00;97004.84;5045640;28;20049;-64
2023/01/10 00:45:23;;;;;;;4.75;1.35;;;;;;;3.42;100.00;97027.00;5046588;28;20114;-66
2023/01/10 00:47:50;;;;;;;2.03;1.00;;;;;;;3.35;100.00;97022.50;5059231;28;20040;-65
2023/01/10 00:50:17;;;;;;;4.15;1.25;;;;;;;3.32;100.00;97028.28;5047419;28;20580;-66
2023/01/10 00:52:44;;;;;;;3.50;1.20;;;;;;;3.42;100.00;97033.16;5045686;28;20041;-66
2023/01/10 00:55:11;;;;;;;3.33;1.20;;;;;;;3.39;100.00;97038.94;5046878;28;20451;-65
2023/01/10 00:57:37;;;;;;;2.70;1.42;;;;;;;3.44;100.00;97046.34;5047811;28;20040;-65
2023/01/10 01:00:07;;;;;;;3.10;1.08;;;;;;;3.52;100.00;97043.41;5046713;28;20095;-66
2023/01/10 01:02:35;;;;;;;2.63;1.00;;;;;;;3.47;100.00;97057.44;5046108;28;20044;-66
2023/01/10 01:05:02;;;;;;;1.27;1.00;;;;;;;3.45;100.00;97064.03;5047099;28;20123;-67
2023/01/10 01:07:29;;;;;;;1.77;0.95;;;;;;;3.50;100.00;97067.72;5046795;28;20096;-65
2023/01/10 01:12:40;;;;;;;1.60;0.70;;;;;;;3.43;100.00;97095.56;5043531;28;20408;-66
2023/01/10 01:15:07;;;;;;;1.95;0.80;;;;;;;3.38;100.00;97088.16;5046334;28;20052;-65
2023/01/10 01:17:33;;;;;;;1.90;0.75;;;;;;;3.38;100.00;97104.22;5047360;28;20124;-65
2023/01/10 01:20:00;;;;;;;2.75;0.80;;;;;;;3.34;100.00;97097.66;5046879;28;20618;-64
2023/01/10 01:22:26;;;;;;;2.13;0.70;;;;;;;3.21;100.00;97101.22;5045129;28;20061;-65
2023/01/10 01:24:53;;;;;;;2.03;0.70;;;;;;;3.24;100.00;97106.94;5045842;28;20053;-65
2023/01/10 01:27:19;;;;;;;1.20;0.70;;;;;;;3.21;100.00;97126.09;5047488;28;20084;-66
2023/01/10 01:29:46;;;;;;;0.60;0.55;;;;;;;3.19;100.00;97130.84;5046920;28;20045;-66
2023/01/10 01:32:12;;;;;;;1.10;0.60;;;;;;;3.28;100.00;97141.31;5044990;28;20532;-66
2023/01/10 01:34:39;;;;;;;1.77;0.80;;;;;;;3.23;100.00;97152.66;5047000;28;20041;-65
2023/01/10 01:37:06;;;;;;;1.98;0.80;;;;;;;3.28;100.00;97160.06;5045493;28;20124;-64
2023/01/10 01:39:32;;;;;;;1.80;0.90;;;;;;;3.21;100.00;97163.56;5046195;28;20041;-65
2023/01/10 01:42:01;;;;;;;1.88;0.80;;;;;;;3.15;100.00;97174.28;5044950;28;20500;-64
2023/01/10 01:44:34;;;;;;;2.70;0.90;;;;;;;3.18;100.00;97179.22;5045679;28;20410;-63
2023/01/10 01:47:06;;;;;;;1.27;0.75;;;;;;;3.20;100.00;97177.97;5046224;28;20072;-65
2023/01/10 01:49:35;;;;;;;;;;;;;;;3.18;100.00;97185.41;5047631;28;20738;-64
2023/01/10 01:52:09;;;;;;;1.70;0.90;;;;;;;3.17;100.00;97186.41;5043879;28;20024;-65
2023/01/10 01:54:36;;;;;;;1.88;1.00;;;;;;;3.11;100.00;97195.28;5046399;28;20055;-65
2023/01/10 01:57:11;;;;;;;1.98;0.85;;;;;;;3.06;100.00;97201.25;5047245;28;20045;-66
2023/01/10 01:59:42;;;;;;;2.50;1.23;;;;;;;3.03;100.00;97206.19;5045530;28;20123;-65
2023/01/10 02:02:19;;;;;;;5.15;1.25;;;;;;;3.01;100.00;97205.56;5044333;28;20059;-66
2023/01/10 02:04:56;;;;;;;2.63;1.30;;;;;;;2.97;100.00;97207.84;5045757;28;20473;-66
2023/01/10 02:07:24;;;;;;;3.22;1.10;;;;;;;2.98;100.00;97222.84;5046002;28;20124;-65
2023/01/10 02:09:57;;;;;;;4.93;1.40;;;;;;;2.96;100.00;97232.94;5045369;28;20139;-64
2023/01/10 02:12:27;;;;;;;3.40;1.10;;;;;;;2.96;100.00;97235.63;5044001;28;20044;-65
2023/01/10 02:14:54;;;;;;;2.80;1.10;;;;;;;2.93;100.00;97244.06;5045138;28;20508;-65
2023/01/10 02:17:21;;;;;;;2.33;1.10;;;;;;;2.84;100.00;97243.44;5044600;28;20045;-65
2023/01/10 02:19:53;;;;;;;3.95;1.35;;;;;;;2.79;100.00;97248.56;5045781;28;20076;-64
2023/01/10 02:22:40;;;;;;;4.30;1.35;;;;;;;2.80;100.00;97244.88;5043753;28;20195;-63
2023/01/10 02:25:23;;;;;;;3.10;1.20;;;;;;;2.84;100.00;97251.47;5044123;28;20614;-64
2023/01/10 02:28:12;;;;;;;3.30;1.17;;;;;;;2.77;100.00;97253.31;5042896;28;20044;-64
2023/01/10 02:31:13;;;;;;;2.63;1.33;;;;;;;2.68;100.00;97268.72;5043215;28;20095;-64
2023/01/10 02:33:55;;;;;;;3.03;1.23;;;;;;;2.63;100.00;97266.66;5045478;28;20045;-65
2023/01/10 02:36:43;;;;;;;2.97;1.55;;;;;;;2.57;100.00;97264.78;5043444;28;20044;-65
2023/01/10 02:39:23;;;;;;;4.78;1.40;;;;;;;2.62;100.00;97278.41;5045003;28;20067;-64
2023/01/10 02:42:00;;;;;;;2.67;1.30;;;;;;;2.63;100.00;97280.03;5044008;28;20103;-65
2023/01/10 02:44:45;;;;;;;2.67;1.30;;;;;;;2.67;100.00;97283.13;5035691;28;20044;-65
2023/01/10 02:47:13;;;;;;;2.40;1.30;;;;;;;2.67;100.00;97281.28;5051873;28;20048;-62
2023/01/10 02:49:48;;;;;;;3.35;1.40;;;;;;;2.71;100.00;97285.19;5045268;28;20064;-62
2023/01/10 02:52:26;;;;;;;6.05;1.42;;;;;;;2.68;100.00;97290.94;5043018;28;20047;-60
2023/01/10 02:54:59;;;;;;;7.63;1.70;;;;;;;2.65;100.00;97296.69;5036295;28;20056;-60
2023/01/10 02:57:43;;;;;;;4.80;1.90;;;;;;;2.70;100.00;97306.78;5041895;28;20064;-61
2023/01/10 03:00:36;;;;;;;7.68;2.05;;;;;;;2.70;100.00;97304.91;5044591;28;20045;-62
2023/01/10 03:03:32;;;;;;;3.85;1.25;;;;;;;2.76;100.00;97319.31;5044964;28;20669;-60
2023/01/10 03:06:13;;;;;;;7.45;1.92;;;;;;;2.79;100.00;97318.09;5043216;28;20088;-61
2023/01/10 03:09:20;;;;;;;6.10;1.67;;;;;;;2.78;100.00;97322.63;5044219;28;20045;-62
2023/01/10 03:11:51;;;;;;;5.30;2.00;;;;;;;2.82;100.00;97325.72;5042197;28;20079;-61
2023/01/10 03:14:24;;;;;;;3.33;1.52;;;;;;;2.79;100.00;97323.44;5049274;28;20116;-61
2023/01/10 03:16:58;;;;;;;4.63;2.03;;;;;;;2.78;100.00;97322.63;5044106;28;20183;-62
2023/01/10 03:19:31;;;;;;;7.18;2.05;;;;;;;2.75;100.00;97324.88;5044575;28;20069;-61
2023/01/10 03:22:01;;;;;;;3.45;1.75;;;;;;;2.72;100.00;97323.44;5042288;28;20045;-63
2023/01/10 03:24:33;;;;;;;5.47;1.60;;;;;;;2.69;100.00;97331.88;5044571;28;20487;-61
2023/01/10 03:27:07;;;;;;;4.38;1.67;;;;;;;2.71;100.00;97346.69;5045481;28;20045;-61
2023/01/10 03:29:44;;;;;;;2.97;1.50;;;;;;;2.68;100.00;97347.09;5044192;28;20041;-62
2023/01/10 03:32:12;;;;;;;4.03;1.55;;;;;;;2.68;100.00;97357.78;5043881;28;20098;-61
2023/01/10 03:34:39;;;;;;;3.95;1.50;;;;;;;2.68;100.00;97355.09;5050638;28;20041;-60
2023/01/10 03:37:23;;;;;;;4.90;1.42;;;;;;;2.65;100.00;97368.06;5050863;28;20049;-60
2023/01/10 03:40:04;;;;;;;2.60;1.30;;;;;;;2.69;100.00;97362.09;5051325;28;20044;-62
2023/01/10 03:45:47;;;;;;;6.50;1.80;;;;;;;2.65;100.00;97368.88;5050969;28;20045;-61
2023/01/10 03:48:17;;;;;;;3.90;1.23;;;;;;;2.68;100.00;97376.50;5051324;28;20048;-62
2023/01/10 03:50:45;;;;;;;3.03;1.30;;;;;;;2.66;100.00;97381.22;5047106;28;20049;-61
2023/01/10 03:53:13;;;;;;;4.97;1.88;;;;;;;2.65;100.00;97397.47;5050179;28;20125;-60
2023/01/10 03:55:41;;;;;;;5.60;2.10;;;;;;;2.70;100.00;97395.00;5048963;28;20039;-60
2023/01/10 03:58:08;;;;;;;6.30;1.50;;;;;;;2.62;100.00;97401.38;5051191;28;20079;-62
2023/01/10 04:00:34;;;;;;;4.50;2.13;;;;;;;2.65;100.00;97402.81;5049531;28;20045;-60
2023/01/10 04:03:01;;;;;;;4.35;1.85;;;;;;;2.65;100.00;97403.63;5050911;28;20051;-63
2023/01/10 04:05:28;;;;;;;6.78;2.55;;;;;;;2.68;100.00;97411.25;5049240;28;20041;-60
2023/01/10 04:07:54;;;;;;;3.53;1.67;;;;;;;2.68;100.00;97421.09;5051014;28;20049;-63
2023/01/10 04:10:21;;;;;;;6.15;1.83;;;;;;;2.65;100.00;97419.66;5050405;28;20412;-60
2023/01/10 04:12:50;;;;;;;5.60;2.00;;;;;;;2.68;100.00;97426.47;5049046;28;20044;-60
2023/01/10 04:15:17;;;;;;;8.60;1.95;;;;;;;2.69;100.00;97426.25;5050542;28;20045;-62
2023/01/10 04:17:44;;;;;;;4.20;2.00;;;;;;;2.67;100.00;97424.81;5050733;28;20409;-61
2023/01/10 04:20:11;;;;;;;6.38;2.10;;;;;;;2.59;100.00;97431.97;5050348;28;20053;-60
2023/01/10 04:22:37;;;;;;;8.20;2.10;;;;;;;2.52;100.00;97433.81;5049103;28;20112;-61
2023/01/10 04:25:04;;;;;;;5.60;1.60;;;;;;;2.59;100.00;97447.22;5050268;28;20037;-60
2023/01/10 04:27:31;;;;;;;7.43;1.55;;;;;;;2.58;100.00;97459.75;5051415;28;20397;-61
2023/01/10 04:29:57;;;;;;;7.47;1.80;;;;;;;2.64;100.00;97466.16;5050420;28;20068;-62
2023/01/10 04:32:23;;;;;;;9.38;2.00;;;;;;;2.66;100.00;97464.09;5048920;28;20040;-62
2023/01/10 04:34:50;;;;;;;7.32;2.13;;;;;;;2.66;100.00;97469.47;5048910;28;20517;-60
2023/01/10 04:37:17;;;;;;;5.60;1.55;;;;;;;2.74;100.00;97487.16;5049983;28;20041;-61
2023/01/10 04:39:43;;;;;;;11.07;2.08;;;;;;;2.77;100.00;97489.47;5050484;28;20107;-61
2023/01/10 04:42:10;;;;;;;4.53;1.55;;;;;;;2.83;100.00;97495.84;5048220;28;20430;-60
2023/01/10 04:44:36;;;;;;;6.40;1.90;;;;;;;2.79;100.00;97503.44;5045991;28;20507;-59
2023/01/10 04:47:03;;;;;;;11.05;2.55;;;;;;;2.85;100.00;97507.97;5044739;28;20044;-60
2023/01/10 04:49:30;;;;;;;10.18;2.65;;;;;;;2.91;100.00;97506.38;5065107;28;20048;-61
2023/01/10 04:51:57;;;;;;;8.32;2.13;;;;;;;2.86;100.00;97509.66;5045688;28;20110;-60
2023/01/10 04:54:23;;;;;;;9.20;2.83;;;;;;;2.82;100.00;97502.22;5050415;28;20042;-60
2023/01/10 04:56:51;;;;;;;6.95;2.20;;;;;;;2.83;100.00;97502.03;5047260;28;20695;-61
2023/01/10 04:59:17;;;;;;;9.30;2.80;;;;;;;2.84;100.00;97506.34;5046711;28;20047;-61
2023/01/10 05:01:44;;;;;;;5.68;1.60;;;;;;;2.73;100.00;97507.72;5044758;28;20044;-61
2023/01/10 05:04:11;;;;;;;9.55;2.20;;;;;;;2.73;100.00;97512.28;5046563;28;20073;-61
2023/01/10 05:06:39;;;;;;;13.27;2.20;;;;;;;2.78;100.00;97527.69;5046737;28;20060;-61
2023/01/10 05:09:08;;;;;;;9.13;2.08;;;;;;;2.64;100.00;97535.66;5046729;28;20574;-61
2023/01/10 05:11:35;;;;;;;12.60;1.75;;;;;;;2.68;100.00;97536.06;5044901;28;20044;-60
2023/01/10 05:14:02;;;;;;;8.13;2.47;;;;;;;2.58;100.00;97547.94;5046467;28;20040;-60
2023/01/10 05:16:28;;;;;;;10.70;2.13;;;;;;;2.53;100.00;97554.91;5046350;28;20114;-61
2023/01/10 05:18:55;;;;;;;7.45;1.85;;;;;;;2.58;100.00;97555.16;5047535;28;20041;-60
2023/01/10 05:21:21;;;;;;;9.48;2.38;;;;;;;2.64;100.00;97565.06;5045104;28;20044;-60
2023/01/10 05:23:48;;;;;;;11.27;1.83;;;;;;;2.65;100.00;97566.72;5045840;28;20098;-61
2023/01/10 05:26:17;;;;;;;8.35;2.10;;;;;;;2.64;100.00;97574.91;5047043;28;20052;-61
2023/01/10 05:28:44;;;;;;;10.55;1.88;;;;;;;2.64;100.00;97586.44;5045780;28;20070;-60
2023/01/10 05:31:14;;;;;;;13.07;2.08;;;;;;;2.62;100.00;97593.84;5045376;28;20805;-61
2023/01/10 05:33:48;;;;;;;8.45;1.80;;;;;;;2.65;100.00;97589.97;5046965;28;20139;-60
2023/01/10 05:36:16;;;;;;;10.68;2.10;;;;;;;2.71;100.00;97600.69;5046288;28;20044;-60
2023/01/10 05:38:42;;;;;;;10.75;1.77;;;;;;;2.64;100.00;97597.16;5047941;28;20514;-61
2023/01/10 05:41:09;;;;;;;7.15;1.38;;;;;;;2.65;100.00;97612.16;5043888;28;20692;-61
2023/01/10 05:43:36;;;;;;;10.30;1.85;;;;;;;2.77;100.00;97606.28;5046083;28;20037;-60
2023/01/10 05:46:02;;;;;;;7.47;1.70;;;;;;;2.74;100.00;97607.50;5045691;28;20132;-61
2023/01/10 05:48:29;;;;;;;7.38;1.52;;;;;;;2.78;100.00;97607.94;5047713;28;20045;-61
2023/01/10 05:50:56;;;;;;;9.07;2.00;;;;;;;2.70;100.00;97611.59;5043050;28;20605;-61
2023/01/10 05:53:23;;;;;;;7.75;1.70;;;;;;;2.83;100.00;97616.19;5044897;28;20679;-61
2023/01/10 05:55:59;;;;;;;10.15;3.03;;;;;;;2.69;100.00;97616.09;5045327;28;20040;-60
2023/01/10 05:58:27;;;;;;;11.15;2.50;;;;;;;2.70;100.00;97615.06;5045477;28;20037;-60
2023/01/10 06:00:55;;;;;;;11.13;2.35;;;;;;;2.79;100.00;97617.59;5041409;28;20119;-60
2023/01/10 06:03:22;;;;;;;9.02;1.83;;;;;;;2.91;98.92;97613.34;5046423;28;20087;-61
2023/01/10 06:05:48;;;;;;;5.10;1.20;;;;;;;2.85;100.00;97616.81;5046950;28;20049;-60
2023/01/10 06:08:15;;;;;;;5.80;1.55;;;;;;;2.90;99.64;97611.72;5044029;28;20488;-60
2023/01/10 06:10:42;;;;;;;9.00;1.40;;;;;;;2.74;100.00;97615.53;5033995;28;20068;-61
2023/01/10 06:13:10;;;;;;;8.68;1.77;;;;;;;2.77;100.00;97617.81;5042291;28;20033;-59
2023/01/10 06:15:37;;;;;;;11.98;4.25;;;;;;;2.79;100.00;97617.59;5042475;28;20681;-62
2023/01/10 06:18:04;;;;;;;9.38;1.60;;;;;;;2.84;100.00;97620.53;5042906;28;20579;-60
2023/01/10 06:20:31;;;;;;;8.27;1.70;;;;;;;2.84;100.00;97626.69;5039897;28;20074;-60
2023/01/10 06:22:59;;;;;;;12.75;3.80;;;;;;;2.85;100.00;97632.88;5041873;28;20045;-62
2023/01/10 06:25:28;;;;;;;15.57;2.15;;;;;;;2.85;100.00;97638.22;5041665;28;20103;-61
2023/01/10 06:27:54;;;;;;;10.02;3.63;;;;;;;2.78;100.00;97642.69;5040727;28;20037;-61
2023/01/10 06:30:21;;;;;;;9.45;3.83;;;;;;;2.75;100.00;97653.78;5040161;28;20044;-61
2023/01/10 06:32:48;;;;;;;5.22;1.23;;;;;;;2.72;99.98;97653.16;5040434;28;20111;-61
2023/01/10 06:35:16;;;;;;;10.90;4.07;;;;;;;2.77;99.95;97654.41;5041485;28;20037;-61
2023/01/10 06:37:43;;;;;;;12.43;4.40;;;;;;;2.68;100.00;97659.91;5042728;28;20786;-61
2023/01/10 06:40:10;;;;;;;8.27;1.65;;;;;;;2.61;100.00;97661.69;5041014;28;20041;-61
2023/01/10 06:42:38;;;;;;;4.28;1.20;;;;;;;2.72;100.00;97663.84;5041067;28;20091;-59
2023/01/10 06:45:05;;;;;;;7.57;2.97;;;;;;;2.75;100.00;97675.16;5040853;28;20090;-61
2023/01/10 06:47:31;;;;;;;6.45;1.88;;;;;;;2.76;100.00;97679.50;5041720;28;20079;-61
2023/01/10 06:49:58;;;;;;;12.05;1.92;;;;;;;2.75;100.00;97685.84;5042699;28;20136;-61
2023/01/10 06:52:25;;;;;;;13.40;3.13;;;;;;;2.75;100.00;97686.69;5040124;28;20064;-61
2023/01/10 06:54:52;;;;;;;4.53;1.17;;;;;;;2.83;100.00;97686.56;5041187;28;20123;-60
2023/01/10 06:57:18;;;;;;;8.40;1.77;;;;;;;2.86;99.63;97699.56;5041653;28;20049;-62
2023/01/10 06:59:45;;;;;;;7.78;1.63;;;;;;;2.93;100.00;97691.56;5044487;28;20651;-61
2023/01/10 07:02:11;;;;;;;10.35;1.65;;;;;;;2.85;100.00;97697.06;5040444;28;20128;-61
2023/01/10 07:04:38;;;;;;;12.85;3.50;;;;;;;2.81;99.93;97703.81;5042401;28;20041;-60
2023/01/10 07:07:04;;;;;;;6.10;1.80;;;;;;;3.02;98.90;97715.50;5041119;28;20045;-60
2023/01/10 07:09:31;;;;;;;9.63;1.98;;;;;;;2.94;99.31;97719.97;5042025;28;20531;-59
2023/01/10 07:11:58;;;;;;;7.80;1.63;;;;;;;2.81;100.00;97720.72;5044443;28;20130;-60
2023/01/10 07:14:24;;;;;;;5.78;1.55;;;;;;;2.92;100.00;97722.03;5041611;28;20440;-60
2023/01/10 07:16:51;;;;;;;7.65;1.38;;;;;;;2.99;99.94;97722.88;5041824;28;20103;-60
2023/01/10 07:19:18;;;;;;;12.38;3.85;;;;;;;2.86;100.00;97723.63;5041881;28;20045;-60
2023/01/10 07:21:45;;;;;;;9.52;1.55;;;;;;;2.83;100.00;97721.31;5039635;28;20045;-59
2023/01/10 07:24:12;;;;;;;7.45;1.73;;;;;;;2.84;100.00;97714.13;5042639;28;20051;-60
2023/01/10 07:26:39;;;;;;;9.02;2.00;;;;;;;2.79;100.00;97711.19;5047494;28;20045;-59
2023/01/10 07:29:06;;;;;;;11.43;2.38;;;;;;;2.84;100.00;97706.94;5042942;28;20454;-60
2023/01/10 07:31:32;;;;;;;13.32;2.70;;;;;;;2.78;100.00;97712.22;5040346;28;20148;-60
2023/01/10 07:33:59;;;;;;;13.20;4.10;;;;;;;2.69;100.00;97723.06;5041366;28;20041;-59
2023/01/10 07:36:26;;;;;;;5.95;1.77;;;;;;;2.68;100.00;97736.59;5042627;28;20075;-59
2023/01/10 07:38:52;;;;;;;7.10;1.73;;;;;;;2.76;100.00;97749.84;5045048;28;20056;-60
2023/01/10 07:41:18;;;;;;;5.95;1.73;;;;;;;2.87;100.00;97756.53;5041058;28;20051;-60
2023/01/10 07:43:45;;;;;;;5.40;1.40;;;;;;;2.91;100.00;97757.78;5056547;28;20423;-61
2023/01/10 07:46:12;;;;;;;10.02;2.00;;;;;;;2.93;100.00;97769.16;5044014;28;20677;-60
2023/01/10 07:48:40;;;;;;;11.75;3.70;;;;;;;2.90;100.00;97766.84;5030004;28;20049;-59
2023/01/10 07:51:08;;;;;;;8.48;2.13;;;;;;;2.88;100.00;97790.31;5041440;28;20522;-60
2023/01/10 07:53:34;;;;;;;8.48;2.15;;;;;;;2.94;100.00;97800.22;5054906;28;20512;-59
2023/01/10 07:56:03;;;;;;;8.18;1.70;;;;;;;2.96;100.00;97798.19;5053268;28;20060;-60
2023/01/10 07:58:30;;;;;;;4.32;1.75;;;;;;;2.93;100.00;97800.41;5041635;28;20045;-57
2023/01/10 08:01:01;;;;;;;7.80;1.77;;;;;;;2.81;100.00;97803.63;5039296;28;20583;-57
2023/01/10 08:03:28;;;;;;;11.27;1.90;;;;;;;2.78;100.00;97797.81;5045550;28;20532;-52
2023/01/10 08:06:04;;;;;;;6.63;1.50;;;;;;;2.80;100.00;97785.09;5041979;28;20037;-56
2023/01/10 08:08:32;;;;;;;7.15;1.35;;;;;;;2.84;100.00;97781.81;5046831;28;20044;-62
2023/01/10 08:10:59;;;;;;;7.28;1.73;;;;;;;3.03;98.69;97789.38;5042375;28;20041;-62
2023/01/10 08:13:25;;;;;;;6.18;1.80;;;;;;;3.21;97.88;97795.06;5040508;28;20045;-62
2023/01/10 08:15:52;;;;;;;8.68;1.77;;;;;;;3.31;96.78;97791.25;5045742;28;20654;-63
2023/01/10 08:18:20;;;;;;;5.22;1.63;;;;;;;3.24;97.16;97794.69;5042350;28;20053;-62
2023/01/10 08:20:49;;;;;;;7.63;2.17;;;;;;;3.15;98.21;97797.72;5043842;28;20076;-61
2023/01/10 08:23:16;;;;;;;7.55;1.77;;;;;;;3.03;99.48;97794.75;5045537;28;20068;-61
2023/01/10 08:25:43;;;;;;;5.93;1.88;;;;;;;2.99;99.70;97808.50;5044790;28;20073;-59
2023/01/10 08:28:10;;;;;;;8.07;1.67;;;;;;;3.13;99.79;97805.94;5043584;28;20186;-62
2023/01/10 08:30:36;;;;;;;11.70;1.80;;;;;;;3.10;99.49;97809.81;5043304;28;20090;-61
2023/01/10 08:33:05;;;;;;;9.98;2.22;;;;;;;3.15;99.25;97822.63;5045420;28;20049;-59
2023/01/10 08:35:42;;;;;;;6.47;1.77;;;;;;;3.17;98.83;97811.75;5051334;28;20068;-61
2023/01/10 08:38:10;;;;;;;10.80;2.28;;;;;;;3.05;99.80;97812.25;5045017;28;20041;-61
2023/01/10 08:40:37;;;;;;;13.95;1.92;;;;;;;3.04;99.09;97813.28;5043849;28;20641;-60
2023/01/10 08:43:06;;;;;;;9.63;2.28;;;;;;;3.04;100.00;97810.59;5060334;28;20052;-60
2023/01/10 08:45:33;;;;;;;7.30;1.63;;;;;;;3.07;99.18;97826.28;5042505;28;20778;-61
2023/01/10 08:48:00;;;;;;;8.38;1.98;;;;;;;3.14;98.53;97828.16;5048295;28;20087;-61
2023/01/10 08:50:27;;;;;;;6.32;1.48;;;;;;;3.21;98.62;97823.72;5047381;28;20512;-63
2023/01/10 08:52:56;;;;;;;8.15;1.83;;;;;;;3.20;99.02;97836.25;5048090;28;20049;-61
2023/01/10 08:55:23;;;;;;;6.05;2.08;;;;;;;3.13;99.85;97838.03;5041460;28;20041;-62
2023/01/10 08:57:50;;;;;;;11.38;2.40;;;;;;;3.14;99.72;97823.66;5044760;28;20732;-63
2023/01/10 09:00:20;;;;;;;9.82;2.53;;;;;;;3.21;99.24;97834.41;5051460;28;20128;-63
2023/01/10 09:02:46;;;;;;;8.43;2.42;;;;;;;3.19;99.19;97831.94;5043925;28;20052;-59
2023/01/10 09:05:13;;;;;;;11.63;2.47;;;;;;;3.16;100.00;97840.34;5053685;28;20073;-60
2023/01/10 09:07:53;;;;;;;9.13;2.05;;;;;;;3.22;99.68;97844.09;5043904;28;20053;-60
2023/01/10 09:10:20;;;;;;;4.40;1.73;;;;;;;3.20;98.45;97846.13;5044389;28;20045;-61
2023/01/10 09:12:56;;;;;;;10.63;1.83;;;;;;;3.28;98.71;97845.97;5045922;28;20069;-61
2023/01/10 09:15:28;;;;;;;7.70;2.00;;;;;;;3.30;99.97;97848.47;5043574;28;20041;-61
2023/01/10 09:17:57;;;;;;;7.03;2.10;;;;;;;3.30;100.00;97860.00;5042715;28;20102;-59
2023/01/10 09:20:25;;;;;;;8.07;2.30;;;;;;;3.32;100.00;97852.59;5044389;28;20669;-60
2023/01/10 09:22:52;;;;;;;6.10;2.05;;;;;;;3.40;100.00;97862.38;5046500;28;20049;-60
2023/01/10 09:25:19;;;;;;;9.05;1.80;;;;;;;3.45;100.00;97862.59;5042318;28;20033;-61
2023/01/10 09:27:46;;;;;;;10.52;3.05;;;;;;;3.42;99.79;97862.19;5043683;28;20086;-60
2023/01/10 09:30:13;;;;;;;5.70;1.90;;;;;;;3.45;99.23;97865.28;5044941;28;20036;-60
2023/01/10 09:32:40;;;;;;;6.40;2.10;;;;;;;3.54;99.72;97867.81;5041137;28;20052;-62
2023/01/10 09:35:06;;;;;;;6.82;1.73;;;;;;;3.53;98.79;97871.53;5044548;28;20052;-61
2023/01/10 09:37:33;;;;;;;8.48;1.98;;;;;;;3.59;100.00;97882.28;5046619;28;20083;-61
2023/01/10 09:40:00;;;;;;;8.13;1.73;;;;;;;3.74;100.00;97886.72;5042601;28;20124;-59
2023/01/10 09:42:49;;;;;;;9.57;2.10;;;;;;;3.86;96.83;97887.00;5053397;28;20055;-61
2023/01/10 09:45:25;;;;;;;7.13;2.22;;;;;;;3.69;97.56;97895.31;5034482;28;20073;-60
2023/01/10 09:47:56;;;;;;;6.72;1.80;;;;;;;3.59;97.49;97898.34;5037756;28;20053;-60
2023/01/10 09:50:56;;;;;;;8.50;2.15;;;;;;;3.68;96.85;97906.25;5046284;28;20124;-59
2023/01/10 09:53:26;;;;;;;6.18;1.90;;;;;;;3.59;97.50;97906.41;5046334;28;20037;-57
2023/01/10 09:55:55;;;;;;;7.43;1.83;;;;;;;3.61;97.17;97904.34;5058501;28;20114;-59
2023/01/10 09:58:29;;;;;;;8.82;1.90;;;;;;;3.54;96.98;97916.84;5047388;28;20554;-61
2023/01/10 10:01:00;;;;;;;9.50;2.30;;;;;;;3.56;96.63;97914.81;5043516;28;20045;-58
2023/01/10 10:03:50;;;;;;;6.93;1.75;;;;;;;3.58;97.37;97912.75;5045157;28;20044;-60
2023/01/10 10:06:17;;;;;;;8.80;1.65;;;;;;;3.60;97.26;97918.75;5041251;28;20124;-60
2023/01/10 10:08:45;;;;;;;6.78;1.42;;;;;;;3.73;97.73;97917.22;5043836;28;20555;-60
2023/01/10 10:11:24;;;;;;;5.13;1.88;;;;;;;3.73;96.83;97925.25;5042653;28;20216;-58
2023/01/10 10:14:27;;;;;;;8.23;1.33;;;;;;;3.65;96.79;97912.84;5039240;28;20037;-61
2023/01/10 10:17:18;;;;;;;7.10;1.35;;;;;;;3.74;97.32;97918.84;5023958;28;20120;-62
2023/01/10 10:20:10;;;;;;;3.78;1.10;;;;;;;3.87;95.69;97927.00;5043570;28;20041;-59
2023/01/10 10:22:52;;;;;;;2.90;1.17;;;;;;;3.85;95.89;97920.16;5042243;28;20118;-59
2023/01/10 10:25:34;;;;;;;7.28;1.50;;;;;;;3.83;96.23;97924.91;5041943;28;20065;-60
2023/01/10 10:28:35;;;;;;;9.15;1.85;;;;;;;3.73;96.35;97919.88;5042992;28;20060;-60
2023/01/10 10:31:48;;;;;;;7.63;1.92;;;;;;;3.77;97.19;97921.16;5039725;28;20052;-59
2023/01/10 10:34:37;;;;;;;9.80;1.63;;;;;;;3.85;97.09;97907.63;5034975;28;20044;-59
2023/01/10 10:37:14;;;;;;;6.10;1.30;;;;;;;4.03;94.83;97914.31;5041407;28;20040;-59
2023/01/10 10:39:43;;;;;;;5.75;1.48;;;;;;;3.93;95.16;97906.63;5042414;28;20046;-59
2023/01/10 10:42:14;;;;;;;5.55;1.40;;;;;;;3.93;95.10;97906.63;5037031;28;20044;-60
2023/01/10 10:44:50;;;;;;;6.10;1.30;;;;;;;4.02;95.28;97899.28;5041389;28;20052;-59
2023/01/10 10:47:19;;;;;;;7.75;2.72;;;;;;;4.01;95.32;97906.47;5043497;28;20041;-59
2023/01/10 10:49:58;;;;;;;7.43;2.22;;;;;;;4.24;95.19;97907.25;5051106;28;20049;-60
2023/01/10 10:52:33;;;;;;;4.82;1.30;;;;;;;4.31;95.61;97907.28;5038041;28;20110;-59
2023/01/10 10:55:02;;;;;;;4.95;1.35;;;;;;;4.16;94.12;97898.31;5042195;28;20119;-59
2023/01/10 10:57:32;;;;;;;7.40;1.27;;;;;;;4.01;95.38;97903.81;5040863;28;20087;-59
2023/01/10 11:00:01;;;;;;;7.55;1.77;;;;;;;3.91;94.26;97900.66;5041296;28;20486;-59
2023/01/10 11:02:30;;;;;;;6.35;1.17;;;;;;;4.08;95.31;97895.81;5040153;28;20408;-59
2023/01/10 11:05:02;;;;;;;6.15;1.40;;;;;;;4.25;94.56;97898.16;5040106;28;20132;-60
2023/01/10 11:07:33;;;;;;;2.58;1.00;;;;;;;4.27;94.33;97888.06;5041691;28;20045;-59
2023/01/10 11:10:13;;;;;;;3.47;1.13;;;;;;;4.37;93.15;97901.09;5042385;28;20049;-59
2023/01/10 11:12:46;;;;;;;6.13;1.17;;;;;;;4.53;92.35;97902.63;5046638;28;20051;-60
2023/01/10 11:15:33;;;;;;;4.20;1.00;;;;;;;4.55;90.97;97911.31;5041414;28;20045;-58
2023/01/10 11:18:27;;;;;;;5.13;1.05;;;;;;;4.59;90.31;97915.25;5041152;28;20460;-60
2023/01/10 11:21:14;;;;;;;4.03;0.93;;;;;;;4.49;88.61;97920.16;5038112;28;20136;-61
2023/01/10 11:23:51;;;;;;;6.32;1.45;;;;;;;4.31;88.99;97915.31;5042029;28;20052;-60
2023/01/10 11:26:26;;;;;;;11.15;2.20;;;;;;;4.19;92.08;97917.69;5036645;28;20045;-60
2023/01/10 11:29:07;;;;;;;5.47;1.23;;;;;;;4.15;93.12;97922.63;5043716;28;20048;-62
2023/01/10 11:31:36;;;;;;;3.33;0.88;;;;;;;4.26;93.52;97919.41;5035470;28;20053;-61
2023/01/10 11:34:07;;;;;;;6.00;1.40;;;;;;;4.35;91.28;97921.94;5042528;28;20057;-61
2023/01/10 11:36:55;;;;;;;4.68;1.02;;;;;;;4.42;91.73;97909.38;5041772;28;20144;-62
2023/01/10 11:39:22;;;;;;;3.92;0.95;;;;;;;4.51;85.69;97908.19;5040005;28;20049;-61
2023/01/10 11:41:51;;;;;;;5.40;0.90;;;;;;;4.64;87.07;97901.25;5041466;28;20124;-61
2023/01/10 11:44:26;;;;;;;4.65;0.70;;;;;;;4.71;85.64;97899.41;5041757;28;20500;-61
2023/01/10 11:46:57;;;;;;;9.27;1.20;;;;;;;4.74;85.21;97900.84;5043752;28;20045;-61
2023/01/10 11:49:31;;;;;;;6.82;1.23;;;;;;;4.86;84.83;97901.09;5040708;28;20048;-62
2023/01/10 11:52:04;;;;;;;4.40;1.17;;;;;;;4.88;85.93;97896.34;5044052;28;20107;-60
2023/01/10 11:54:32;;;;;;;7.05;1.38;;;;;;;5.06;82.51;97887.72;5045528;28;20040;-61
2023/01/10 11:57:07;;;;;;;9.38;1.40;;;;;;;5.08;81.50;97893.72;5044943;28;20049;-60
2023/01/10 11:59:34;;;;;;;7.72;1.38;;;;;;;5.12;82.08;97884.22;5044414;28;20053;-61
2023/01/10 12:02:09;;;;;;;12.35;1.50;;;;;;;5.26;81.20;97894.97;5044546;28;20052;-58